createdAt,value
2019-02-26T00:02:21.958Z,263.07
2019-02-26T00:04:54.785Z,243.90
2019-02-26T00:07:27.536Z,281.83
2019-02-26T00:09:59.473Z,254.40
2019-02-26T00:12:31.117Z,237.60
2019-02-26T00:15:02.526Z,265.20
2019-02-26T00:17:36.244Z,248.10
2019-02-26T00:20:07.880Z,233.70
2019-02-26T00:22:39.041Z,256.37
2019-02-26T00:25:10.907Z,242.13
2019-02-26T00:27:42.248Z,244.77
2019-02-26T00:30:14.365Z,220.70
2019-02-26T00:32:44.640Z,220.20
2019-02-26T00:35:16.066Z,233.20
2019-02-26T00:37:49.381Z,222.20
2019-02-26T00:40:20.255Z,219.97
2019-02-26T00:42:54.354Z,210.63
2019-02-26T00:45:26.976Z,187.17
2019-02-26T00:47:55.246Z,182.20
2019-02-26T00:50:25.634Z,199.37
2019-02-26T00:52:57.095Z,199.30
2019-02-26T00:55:29.850Z,192.83
2019-02-26T00:58:01.107Z,175.13
2019-02-26T01:00:33.207Z,170.00
2019-02-26T01:03:06.079Z,178.23
2019-02-26T01:05:38.534Z,162.87
2019-02-26T01:08:12.750Z,167.20
2019-02-26T01:10:41.595Z,162.93
2019-02-26T01:13:12.951Z,159.73
2019-02-26T01:15:43.366Z,148.83
2019-02-26T01:18:13.866Z,155.40
2019-02-26T01:20:44.218Z,154.90
2019-02-26T01:23:16.336Z,140.30
2019-02-26T01:25:46.522Z,142.73
2019-02-26T01:28:18.642Z,144.87
2019-02-26T01:30:53.642Z,117.30
2019-02-26T01:33:22.334Z,114.17
2019-02-26T01:35:55.390Z,122.20
2019-02-26T01:38:25.141Z,134.03
2019-02-26T01:40:56.047Z,115.40
2019-02-26T01:43:26.595Z,120.23
2019-02-26T01:45:57.158Z,125.77
2019-02-26T01:48:27.626Z,127.83
2019-02-26T01:50:59.165Z,110.07
2019-02-26T01:53:30.809Z,111.57
2019-02-26T01:56:04.536Z,116.23
2019-02-26T01:58:34.512Z,128.03
2019-02-26T02:01:04.936Z,108.93
2019-02-26T02:03:35.310Z,102.93
2019-02-26T02:06:06.253Z,102.70
2019-02-26T02:08:41.318Z,108.83
2019-02-26T02:11:11.104Z,97.50
2019-02-26T02:13:43.780Z,103.47
2019-02-26T02:16:13.798Z,100.13
2019-02-26T02:18:48.139Z,95.83
2019-02-26T02:21:16.588Z,87.43
2019-02-26T02:23:48.665Z,89.83
2019-02-26T02:26:19.026Z,86.50
2019-02-26T02:28:49.403Z,88.73
2019-02-26T02:31:22.045Z,75.97
2019-02-26T02:33:52.028Z,89.67
2019-02-26T02:36:26.114Z,82.33
2019-02-26T02:38:55.697Z,93.07
2019-02-26T02:41:26.110Z,85.40
2019-02-26T02:43:56.454Z,92.50
2019-02-26T02:46:26.869Z,84.27
2019-02-26T02:48:57.227Z,90.00
2019-02-26T02:51:28.177Z,92.17
2019-02-26T02:53:59.742Z,82.23
2019-02-26T02:56:30.837Z,80.10
2019-02-26T02:59:03.460Z,76.03
2019-02-26T03:01:34.290Z,86.90
2019-02-26T03:04:04.683Z,75.43
2019-02-26T03:06:36.093Z,76.47
2019-02-26T03:09:15.246Z,77.77
2019-02-26T03:11:46.567Z,75.10
2019-02-26T03:14:18.685Z,76.80
2019-02-26T03:16:51.391Z,76.40
2019-02-26T03:19:21.324Z,76.43
2019-02-26T03:21:52.629Z,75.97
2019-02-26T03:24:27.654Z,70.63
2019-02-26T03:26:56.189Z,79.37
2019-02-26T03:29:26.550Z,84.43
2019-02-26T03:31:57.065Z,66.33
2019-02-26T03:34:27.677Z,72.23
2019-02-26T03:36:59.948Z,72.43
2019-02-26T03:39:30.059Z,78.93
2019-02-26T03:42:01.275Z,70.13
2019-02-26T03:44:31.623Z,75.90
2019-02-26T03:47:02.257Z,71.20
2019-02-26T03:49:32.749Z,71.03
2019-02-26T03:52:03.536Z,74.03
2019-02-26T03:54:40.326Z,69.13
2019-02-26T03:57:11.452Z,67.50
2019-02-26T03:59:42.254Z,72.23
2019-02-26T04:02:14.967Z,68.83
2019-02-26T04:04:45.924Z,77.27
2019-02-26T04:07:16.834Z,75.07
2019-02-26T04:09:49.811Z,74.47
2019-02-26T04:12:20.859Z,67.00
2019-02-26T04:14:51.320Z,76.73
2019-02-26T04:17:25.463Z,70.67
2019-02-26T04:19:53.870Z,71.03
2019-02-26T04:22:34.958Z,66.20
2019-02-26T04:25:31.367Z,68.17
2019-02-26T04:28:20.099Z,71.03
2019-02-26T04:31:41.521Z,74.13
2019-02-26T04:34:38.496Z,73.70
2019-02-26T04:37:49.188Z,67.97
2019-02-26T04:40:33.026Z,65.10
2019-02-26T04:44:01.230Z,69.10
2019-02-26T04:46:53.800Z,61.00
2019-02-26T04:49:27.204Z,75.17
2019-02-26T04:51:55.805Z,76.80
2019-02-26T04:54:27.141Z,67.67
2019-02-26T04:56:58.275Z,62.43
2019-02-26T04:59:29.887Z,70.80
2019-02-26T05:02:01.023Z,75.00
2019-02-26T05:04:33.808Z,74.17
2019-02-26T05:07:05.182Z,67.30
2019-02-26T05:09:36.021Z,84.20
2019-02-26T05:12:06.476Z,78.03
2019-02-26T05:14:36.834Z,76.57
2019-02-26T05:17:07.323Z,73.43
2019-02-26T05:19:39.587Z,74.53
2019-02-26T05:22:09.770Z,66.37
2019-02-26T05:24:43.749Z,68.33
2019-02-26T05:27:16.596Z,71.07
2019-02-26T05:29:49.139Z,79.20
2019-02-26T05:32:21.833Z,70.13
2019-02-26T05:34:51.767Z,80.13
2019-02-26T05:37:22.110Z,67.03
2019-02-26T05:39:54.570Z,73.90
2019-02-26T05:42:24.925Z,71.27
2019-02-26T05:44:57.399Z,71.80
2019-02-26T05:47:27.351Z,68.07
2019-02-26T05:49:59.546Z,68.23
2019-02-26T05:52:33.159Z,67.90
2019-02-26T05:55:03.315Z,72.87
2019-02-26T05:57:33.857Z,68.37
2019-02-26T06:00:05.050Z,75.87
2019-02-26T06:02:37.405Z,69.87
2019-02-26T06:05:07.908Z,72.07
2019-02-26T06:07:38.885Z,69.47
2019-02-26T06:10:09.535Z,65.07
2019-02-26T06:12:41.503Z,70.47
2019-02-26T06:15:12.231Z,71.30
2019-02-26T06:17:43.744Z,62.63
2019-02-26T06:20:17.329Z,59.60
2019-02-26T06:22:47.755Z,66.90
2019-02-26T06:25:23.660Z,59.50
2019-02-26T06:27:50.234Z,60.90
2019-02-26T06:30:20.583Z,60.77
2019-02-26T06:32:51.037Z,63.73
2019-02-26T06:35:22.561Z,89.47
2019-02-26T06:37:53.054Z,63.43
2019-02-26T06:40:23.515Z,41.03
2019-02-26T06:42:53.905Z,47.00
2019-02-26T06:45:24.908Z,46.23
2019-02-26T06:47:56.465Z,40.07
2019-02-26T06:50:27.286Z,41.53
2019-02-26T06:52:57.675Z,56.03
2019-02-26T06:55:28.067Z,35.43
2019-02-26T06:58:21.603Z,36.03
2019-02-26T07:00:54.882Z,38.37
2019-02-26T07:03:24.788Z,30.73
2019-02-26T07:05:55.439Z,39.70
2019-02-26T07:08:28.058Z,42.57
2019-02-26T07:10:57.847Z,27.87
2019-02-26T07:13:28.177Z,29.57
2019-02-26T07:15:58.625Z,28.83
2019-02-26T07:18:29.007Z,50.93
2019-02-26T07:21:00.358Z,26.23
2019-02-26T07:23:34.559Z,34.27
2019-02-26T07:26:02.767Z,25.87
2019-02-26T07:28:33.136Z,30.37
2019-02-26T07:31:05.482Z,23.63
2019-02-26T07:33:37.115Z,24.07
2019-02-26T07:36:08.150Z,25.80
2019-02-26T07:38:41.181Z,29.57
2019-02-26T07:41:10.526Z,30.90
2019-02-26T07:43:41.775Z,29.93
2019-02-26T07:46:14.691Z,32.57
2019-02-26T07:48:46.155Z,27.77
2019-02-26T07:51:18.350Z,27.73
2019-02-26T07:53:51.155Z,28.43
2019-02-26T07:56:22.970Z,26.27
2019-02-26T07:58:57.010Z,30.37
2019-02-26T08:01:25.210Z,35.60
2019-02-26T08:03:55.833Z,29.47
2019-02-26T08:06:26.730Z,28.43
2019-02-26T08:08:58.438Z,23.30
2019-02-26T08:11:28.973Z,32.10
2019-02-26T08:14:01.526Z,30.77
2019-02-26T08:16:33.223Z,47.90
2019-02-26T08:19:03.615Z,24.10
2019-02-26T08:21:34.145Z,29.87
2019-02-26T08:24:05.358Z,28.23
2019-02-26T08:26:35.812Z,30.07
2019-02-26T08:29:07.556Z,33.33
2019-02-26T08:31:38.189Z,26.30
2019-02-26T08:34:12.625Z,30.47
2019-02-26T08:36:40.655Z,35.10
2019-02-26T08:39:14.933Z,29.27
2019-02-26T08:42:08.312Z,29.37
2019-02-26T08:47:31.867Z,29.07
2019-02-26T08:50:06.482Z,29.03
2019-02-26T08:52:34.419Z,27.23
2019-02-26T08:55:07.129Z,24.33
2019-02-26T08:57:37.502Z,30.93
2019-02-26T09:00:11.533Z,29.73
2019-02-26T09:02:43.735Z,23.07
2019-02-26T09:05:14.862Z,23.30
2019-02-26T09:07:47.435Z,18.23
2019-02-26T09:10:18.392Z,23.60
2019-02-26T09:12:51.683Z,24.20
2019-02-26T09:15:22.236Z,18.10
2019-02-26T09:17:52.667Z,23.93
2019-02-26T09:20:23.399Z,18.97
2019-02-26T09:22:56.252Z,23.53
2019-02-26T09:25:28.572Z,19.23
2019-02-26T09:27:58.067Z,26.27
2019-02-26T09:30:30.905Z,18.67
2019-02-26T09:33:00.914Z,17.50
2019-02-26T09:35:33.589Z,15.53
2019-02-26T09:38:03.916Z,25.10
2019-02-26T09:40:34.501Z,20.77
2019-02-26T09:43:06.143Z,21.60
2019-02-26T09:45:36.825Z,17.40
2019-02-26T09:48:07.267Z,22.50
2019-02-26T09:50:38.589Z,14.67
2019-02-26T09:53:10.407Z,14.10
2019-02-26T09:55:40.767Z,21.73
2019-02-26T09:58:13.444Z,19.77
2019-02-26T10:00:46.089Z,22.50
2019-02-26T10:03:16.386Z,21.87
2019-02-26T10:05:48.206Z,17.17
2019-02-26T10:08:19.979Z,30.87
2019-02-26T10:10:52.046Z,21.23
2019-02-26T10:13:25.009Z,22.70
2019-02-26T10:15:58.260Z,21.67
2019-02-26T10:18:27.901Z,17.00
2019-02-26T10:20:59.067Z,22.90
2019-02-26T10:23:32.992Z,14.90
2019-02-26T10:26:03.328Z,23.23
2019-02-26T10:28:37.281Z,22.77
2019-02-26T10:31:07.639Z,27.83
2019-02-26T10:33:40.485Z,19.97
2019-02-26T10:36:11.198Z,21.20
2019-02-26T10:38:42.581Z,15.23
2019-02-26T10:41:12.899Z,20.00
2019-02-26T10:43:43.345Z,16.73
2019-02-26T10:46:13.717Z,22.33
2019-02-26T10:48:45.657Z,16.50
2019-02-26T10:51:17.146Z,15.87
2019-02-26T10:53:47.847Z,13.10
2019-02-26T10:56:18.205Z,17.33
2019-02-26T10:58:48.839Z,17.93
2019-02-26T11:01:22.703Z,16.93
2019-02-26T11:03:52.841Z,19.23
2019-02-26T11:06:23.591Z,17.53
2019-02-26T11:08:55.723Z,16.80
2019-02-26T11:11:27.168Z,18.60
2019-02-26T11:13:57.637Z,19.67
2019-02-26T11:16:30.483Z,12.63
2019-02-26T11:19:01.982Z,14.57
2019-02-26T11:21:32.221Z,15.60
2019-02-26T11:24:03.692Z,12.93
2019-02-26T11:26:35.958Z,13.87
2019-02-26T11:29:06.749Z,15.23
2019-02-26T11:31:39.744Z,11.73
2019-02-26T11:34:11.155Z,22.70
2019-02-26T11:36:41.257Z,11.50
2019-02-26T11:39:12.172Z,16.23
2019-02-26T11:41:43.252Z,19.93
2019-02-26T11:44:19.055Z,10.90
2019-02-26T11:46:46.734Z,16.63
2019-02-26T11:49:19.477Z,30.23
2019-02-26T11:51:50.029Z,13.53
2019-02-26T11:54:20.415Z,14.77
2019-02-26T11:56:52.533Z,13.07
2019-02-26T11:59:23.338Z,26.30
2019-02-26T12:01:54.182Z,18.03
2019-02-26T12:04:25.691Z,21.30
2019-02-26T12:06:58.391Z,9.90
2019-02-26T12:09:30.033Z,16.10
2019-02-26T12:12:00.986Z,13.97
2019-02-26T12:14:34.464Z,11.73
2019-02-26T12:17:04.461Z,12.60
2019-02-26T12:19:37.033Z,15.77
2019-02-26T12:22:06.891Z,12.43
2019-02-26T12:24:37.239Z,15.30
2019-02-26T12:27:09.759Z,12.83
2019-02-26T12:29:40.164Z,23.20
2019-02-26T12:32:11.958Z,15.23
2019-02-26T12:34:44.597Z,14.10
2019-02-26T12:37:14.358Z,16.50
2019-02-26T12:39:47.463Z,13.87
2019-02-26T12:42:18.730Z,16.87
2019-02-26T12:44:49.186Z,15.00
2019-02-26T12:47:21.879Z,14.03
2019-02-26T12:49:51.637Z,10.67
2019-02-26T12:52:25.129Z,19.70
2019-02-26T12:54:57.570Z,10.67
2019-02-26T12:57:29.680Z,13.03
2019-02-26T12:59:59.488Z,12.20
2019-02-26T13:02:29.906Z,9.43
2019-02-26T13:05:00.379Z,7.80
2019-02-26T13:07:30.895Z,13.03
2019-02-26T13:10:03.835Z,20.17
2019-02-26T13:12:35.184Z,22.17
2019-02-26T13:15:09.730Z,13.70
2019-02-26T13:17:38.585Z,15.23
2019-02-26T13:20:12.351Z,14.13
2019-02-26T13:22:45.842Z,17.17
2019-02-26T13:27:48.252Z,17.00
2019-02-26T13:30:21.097Z,14.10
2019-02-26T13:32:58.063Z,11.60
2019-02-26T13:35:24.486Z,8.90
2019-02-26T13:37:55.302Z,20.27
2019-02-26T13:40:25.770Z,13.60
2019-02-26T13:45:28.952Z,8.90
2019-02-26T13:48:01.355Z,10.87
2019-02-26T13:50:31.988Z,11.47
2019-02-26T13:53:02.392Z,9.80
2019-02-26T13:55:34.010Z,12.80
2019-02-26T13:58:11.499Z,17.20
2019-02-26T14:00:36.901Z,12.00
2019-02-26T14:03:07.348Z,17.77
2019-02-26T14:05:38.409Z,12.17
2019-02-26T14:08:09.605Z,11.23
2019-02-26T14:10:40.253Z,11.20
2019-02-26T14:13:10.721Z,10.10
2019-02-26T14:15:41.252Z,9.07
2019-02-26T14:18:11.669Z,12.03
2019-02-26T14:20:42.104Z,14.27
2019-02-26T14:23:12.549Z,13.20
2019-02-26T14:25:42.946Z,12.03
2019-02-26T14:28:13.356Z,15.93
2019-02-26T14:30:43.744Z,15.30
2019-02-26T14:33:14.789Z,23.57
2019-02-26T14:35:45.196Z,16.10
2019-02-26T14:38:15.536Z,10.47
2019-02-26T14:40:45.955Z,16.60
2019-02-26T14:43:16.422Z,12.97
2019-02-26T14:45:46.801Z,9.73
2019-02-26T14:48:17.278Z,9.63
2019-02-26T14:50:48.057Z,8.70
2019-02-26T14:53:18.439Z,16.83
2019-02-26T14:55:48.944Z,8.67
2019-02-26T14:58:19.782Z,15.97
2019-02-26T15:00:57.646Z,15.10
2019-02-26T15:03:23.550Z,13.50
2019-02-26T15:05:54.003Z,12.57
2019-02-26T15:08:24.436Z,15.60
2019-02-26T15:10:54.859Z,13.40
2019-02-26T15:13:25.626Z,13.27
2019-02-26T15:15:56.103Z,22.50
2019-02-26T15:18:26.552Z,14.50
2019-02-26T15:20:57.043Z,15.53
2019-02-26T15:23:27.382Z,15.13
2019-02-26T15:25:57.855Z,19.67
2019-02-26T15:28:28.240Z,14.03
2019-02-26T15:30:58.949Z,21.70
2019-02-26T15:33:29.349Z,17.60
2019-02-26T15:35:59.730Z,12.50
2019-02-26T15:38:30.104Z,7.63
2019-02-26T15:41:00.517Z,20.43
2019-02-26T15:43:30.894Z,11.80
2019-02-26T15:46:02.735Z,28.57
2019-02-26T15:48:33.674Z,21.17
2019-02-26T15:51:13.936Z,20.57
2019-02-26T15:53:38.954Z,26.27
2019-02-26T15:56:09.338Z,17.80
2019-02-26T15:58:39.759Z,11.00
2019-02-26T16:01:12.860Z,10.90
2019-02-26T16:03:44.222Z,10.57
2019-02-26T16:06:14.746Z,17.77
2019-02-26T16:08:45.370Z,16.40
2019-02-26T16:11:15.828Z,16.50
2019-02-26T16:13:46.873Z,27.33
2019-02-26T16:16:18.102Z,18.60
2019-02-26T16:18:48.826Z,19.53
2019-02-26T16:21:19.446Z,17.10
2019-02-26T16:23:49.871Z,21.40
2019-02-26T16:26:21.706Z,30.67
2019-02-26T16:28:52.161Z,19.17
2019-02-26T16:31:22.695Z,17.80
2019-02-26T16:33:53.088Z,19.90
2019-02-26T16:36:23.780Z,40.93
2019-02-26T16:39:06.391Z,22.77
2019-02-26T16:41:42.803Z,28.10
2019-02-26T16:44:13.355Z,14.60
2019-02-26T16:46:44.024Z,26.60
2019-02-26T16:49:14.407Z,18.77
2019-02-26T16:51:44.839Z,18.17
2019-02-26T16:54:15.278Z,31.07
2019-02-26T16:56:47.191Z,28.57
2019-02-26T16:59:17.489Z,22.27
2019-02-26T17:01:48.050Z,20.23
2019-02-26T17:04:18.799Z,21.70
2019-02-26T17:06:51.538Z,19.90
2019-02-26T17:09:21.989Z,28.10
2019-02-26T17:11:52.997Z,30.13
2019-02-26T17:14:23.675Z,18.07
2019-02-26T17:16:54.196Z,21.53
2019-02-26T17:19:24.771Z,25.97
2019-02-26T17:21:55.121Z,20.23
2019-02-26T17:24:25.476Z,23.97
2019-02-26T17:26:55.868Z,20.97
2019-02-26T17:29:27.114Z,24.97
2019-02-26T17:31:57.552Z,24.23
2019-02-26T17:34:28.969Z,15.47
2019-02-26T17:36:59.403Z,25.10
2019-02-26T17:39:30.893Z,22.00
2019-02-26T17:42:01.578Z,32.03
2019-02-26T17:44:32.007Z,29.43
2019-02-26T17:47:02.386Z,55.70
2019-02-26T17:49:33.673Z,38.37
2019-02-26T17:52:06.468Z,32.17
2019-02-26T17:54:37.473Z,15.10
2019-02-26T17:57:08.009Z,23.47
2019-02-26T17:59:38.532Z,18.83
2019-02-26T18:02:09.112Z,14.47
2019-02-26T18:04:39.771Z,22.83
2019-02-26T18:07:10.521Z,27.23
2019-02-26T18:09:41.057Z,20.37
2019-02-26T18:12:11.608Z,23.83
2019-02-26T18:14:42.242Z,24.50
2019-02-26T18:17:12.669Z,23.93
2019-02-26T18:19:49.448Z,28.87
2019-02-26T18:22:21.587Z,28.37
2019-02-26T18:24:50.025Z,32.50
2019-02-26T18:27:20.762Z,27.17
2019-02-26T18:29:51.216Z,35.67
2019-02-26T18:32:21.905Z,27.93
2019-02-26T18:34:53.477Z,32.07
2019-02-26T18:37:24.070Z,21.97
2019-02-26T18:39:55.224Z,20.27
2019-02-26T18:42:26.278Z,21.87
2019-02-26T18:44:56.739Z,24.43
2019-02-26T18:47:27.342Z,22.20
2019-02-26T18:49:57.929Z,16.00
2019-02-26T18:52:28.445Z,21.03
2019-02-26T18:54:58.986Z,25.57
2019-02-26T18:57:29.397Z,38.53
2019-02-26T18:59:59.878Z,31.60
2019-02-26T19:02:30.648Z,21.73
2019-02-26T19:05:01.352Z,30.77
2019-02-26T19:07:33.951Z,26.90
2019-02-26T19:10:05.383Z,21.53
2019-02-26T19:12:35.884Z,39.23
2019-02-26T19:15:07.367Z,28.83
2019-02-26T19:17:38.296Z,31.20
2019-02-26T19:20:10.090Z,28.67
2019-02-26T19:22:40.869Z,29.10
2019-02-26T19:25:11.585Z,24.17
2019-02-26T19:27:41.957Z,23.20
2019-02-26T19:30:14.739Z,21.67
2019-02-26T19:32:47.529Z,26.00
2019-02-26T19:35:17.573Z,21.27
2019-02-26T19:37:49.550Z,26.27
2019-02-26T19:40:21.556Z,25.17
2019-02-26T19:42:52.904Z,24.17
2019-02-26T19:45:23.737Z,25.33
2019-02-26T19:47:55.949Z,27.30
2019-02-26T19:50:26.321Z,19.67
2019-02-26T19:52:57.471Z,24.13
2019-02-26T19:55:32.643Z,33.60
2019-02-26T19:58:06.539Z,27.57
2019-02-26T20:00:35.352Z,24.03
2019-02-26T20:03:06.256Z,41.10
2019-02-26T20:05:36.847Z,22.57
2019-02-26T20:08:07.657Z,33.40
2019-02-26T20:10:38.132Z,21.43
2019-02-26T20:13:12.468Z,27.87
2019-02-26T20:15:40.576Z,19.80
2019-02-26T20:18:20.065Z,27.63
2019-02-26T20:20:46.040Z,33.70
2019-02-26T20:23:16.350Z,31.10
2019-02-26T20:25:47.108Z,31.97
2019-02-26T20:28:17.784Z,35.17
2019-02-26T20:30:49.614Z,25.20
2019-02-26T20:33:20.101Z,25.47
2019-02-26T20:35:50.776Z,30.23
2019-02-26T20:38:21.203Z,34.80
2019-02-26T20:40:51.562Z,25.73
2019-02-26T20:43:21.990Z,37.97
2019-02-26T20:45:52.416Z,27.13
2019-02-26T20:48:24.011Z,32.53
2019-02-26T20:50:57.350Z,31.13
2019-02-26T20:53:28.976Z,28.17
2019-02-26T20:55:59.324Z,38.77
2019-02-26T20:58:29.813Z,28.07
2019-02-26T21:01:00.201Z,37.33
2019-02-26T21:03:30.585Z,27.43
2019-02-26T21:06:01.938Z,31.77
2019-02-26T21:08:32.522Z,23.70
2019-02-26T21:11:02.940Z,32.57
2019-02-26T21:13:35.494Z,31.57
2019-02-26T21:16:06.068Z,28.33
2019-02-26T21:18:36.587Z,32.43
2019-02-26T21:21:07.804Z,29.63
2019-02-26T21:23:38.273Z,22.87
2019-02-26T21:26:08.858Z,36.80
2019-02-26T21:28:39.410Z,31.63
2019-02-26T21:31:09.881Z,26.13
2019-02-26T21:33:40.584Z,30.90
2019-02-26T21:36:11.063Z,35.63
2019-02-26T21:38:41.808Z,34.80
2019-02-26T21:41:12.271Z,38.33
2019-02-26T21:43:46.941Z,31.37
2019-02-26T21:46:17.779Z,25.17
2019-02-26T21:48:48.309Z,35.50
2019-02-26T21:51:19.112Z,35.07
2019-02-26T21:53:49.831Z,32.10
2019-02-26T21:56:20.330Z,24.97
2019-02-26T21:58:50.883Z,34.03
2019-02-26T22:01:21.574Z,23.53
2019-02-26T22:03:52.161Z,40.80
2019-02-26T22:06:22.681Z,25.27
2019-02-26T22:08:54.915Z,27.90
2019-02-26T22:11:25.632Z,23.00
2019-02-26T22:13:56.157Z,23.87
2019-02-26T22:16:26.527Z,29.73
2019-02-26T22:18:58.215Z,27.63
2019-02-26T22:21:28.691Z,27.83
2019-02-26T22:23:59.250Z,46.23
2019-02-26T22:26:29.601Z,29.83
2019-02-26T22:29:00.483Z,33.07
2019-02-26T22:31:30.877Z,30.27
2019-02-26T22:34:01.279Z,24.13
2019-02-26T22:36:33.317Z,26.93
2019-02-26T22:39:05.526Z,44.10
2019-02-26T22:41:37.896Z,32.27
2019-02-26T22:44:08.376Z,31.33
2019-02-26T22:46:38.820Z,26.43
2019-02-26T22:49:09.832Z,24.60
2019-02-26T22:51:40.273Z,27.20
2019-02-26T22:54:10.833Z,36.53
2019-02-26T22:56:43.319Z,38.93
2019-02-26T22:59:13.820Z,39.10
2019-02-26T23:01:48.507Z,39.87
2019-02-26T23:04:19.630Z,26.83
2019-02-26T23:06:50.803Z,32.77
2019-02-26T23:09:24.241Z,34.40
2019-02-26T23:11:55.141Z,37.90
2019-02-26T23:14:27.997Z,35.57
2019-02-26T23:16:58.782Z,29.20
2019-02-26T23:19:30.287Z,28.73
2019-02-26T23:22:00.949Z,30.20
2019-02-26T23:24:32.001Z,25.17
2019-02-26T23:27:04.022Z,36.17
2019-02-26T23:29:34.486Z,28.57
2019-02-26T23:32:06.744Z,31.10
2019-02-26T23:34:37.364Z,26.33
2019-02-26T23:37:08.312Z,27.37
2019-02-26T23:39:39.057Z,33.33
2019-02-26T23:42:09.543Z,31.53
2019-02-26T23:44:39.893Z,34.33
2019-02-26T23:47:10.370Z,29.50
2019-02-26T23:49:40.948Z,53.27
2019-02-26T23:52:11.351Z,53.10
2019-02-26T23:54:41.751Z,32.00
2019-02-26T23:57:12.794Z,26.30
2019-02-26T23:59:43.179Z,28.20
